aviador You're here:

YBCG Decoded Metar

COOLANGATTA in AUSTRALIA
Report Time2017-09-23 21:00:00
UTC Time2017-09-23 21:37:30
Flight Rules vfr VFR
Wind330° at 14 kt
W.Decomp.*RWY 32: 14.0 kt HW 0.2 kt LCW
RWY 35: 12.0 kt HW 7.2 kt LCW
W.Rank330° ranks 15
Current wind is above 330° avg. (7.7)
Visibility9999 m
Phenomena:N/A
Clouds:N/A
Expected CloudBase > 2,800 ft AGL from Temp-Dew spread
CeilingNone
Temp22°C (ISA +7)
Dew Point15°C (65% RH)
AAT18.6°C
QNH1011 hPa
Density Alt1,135 ft
Elevation20 ft
Report Wrong Elevation
Raw Report
YBCG 232100Z AUTO 33014KT 9999 // NCD 22/15 Q1011 RF00.0/000.0=

Extra information for YBCG:More info

Metar Taf Metar & Taf Last 4 Metars F.Rules Stats Wind Profile Meteogram Temp Stats Airport Information Weather charts Add Link Nearby VenuesMetar ALERT Operation Metar Decoded Social comments